• Join FlightAware (Why Join?)
  • Login
  • US Flag 
09:55AM EST


 

Airport Tracker/Info


-or-


 

Live Flight TrackerFlight Track Log ✈ DAL2352 ✈ 09-Jul-2013 ✈ KALB - KATL

Flight Track Log - Related Links

Times and Time Zones

All times are in EDT time to prevent confusion due to time zone crossing. See the DAL2352 flight status page for this flight to view local times or setup timezone preferences in your user account.

Time Position Orientation Groundspeed Altitude Reporting Facility
EDT Latitude Longitude Course Direction KTS MPH feet Rate Location/Type
06:30AM 42.7694 -73.8089 180° South 159 183 1,400  Level Boston Center
06:31AM 42.8253 -73.8386 339° North 244 281 2,400 2,160 Climbing Boston Center
06:33AM 42.4958 -74.1560 200° South  Level Estimated
06:33AM 42.8739 -73.9500 301° West 409 471 6,700  Level Boston Center
06:34AM 42.4111 -74.2734 198° South  Level Estimated
06:34AM 42.8667 -74.0322 263° West 303 349 8,600  Level Boston Center
06:35AM 42.3262 -74.3904 180° South  Level Estimated
06:35AM 42.7889 -74.0725 201° Southwest 234 269 10,700  Level Boston Center
06:36AM 42.2413 -74.5072 180° South  Level Estimated
06:36AM 42.6889 -74.0669 178° South 268 308 11,700  Level Boston Center
06:37AM 42.5639 -74.0525 175° South 399 459 13,900 2,820 Climbing Boston Center
06:38AM 42.4661 -74.0444 177° South 399 459 17,400 2,760 Climbing Boston Center
06:39AM 42.3661 -74.0447 180° South 389 448 19,500 1,380 Climbing Boston Center
06:40AM 42.2558 -74.0361 177° South 384 442 20,200 720 Climbing Boston Center
06:41AM 42.1347 -74.0442 183° South 403 464 21,000 900 Climbing Boston Center
06:42AM 42.0097 -74.0522 183° South 435 501 22,000 1,020 Climbing Boston Center
06:43AM 41.8797 -74.0908 192° South 459 528 23,100 1,320 Climbing Boston Center
06:44AM 41.7433 -74.1653 202° Southwest 474 545 24,700 1,500 Climbing Boston Center
06:46AM 41.4769 -74.3153 203° Southwest 479 551 28,000 1,440 Climbing New York Center
06:47AM 41.3583 -74.3864 204° Southwest 479 551 29,400 1,140 Climbing New York Center
06:48AM 41.2442 -74.4408 200° South 479 551 30,400 1,020 Climbing New York Center
06:49AM 41.1233 -74.5061 202° Southwest 479 551 31,500 900 Climbing New York Center
06:50AM 41.0161 -74.5992 213° Southwest 473 544 32,300 660 Climbing New York Center
06:51AM 40.9250 -74.7119 223° Southwest 462 532 32,900 600 Climbing New York Center
06:52AM 40.8336 -74.8275 224° Southwest 462 532 33,500 540 Climbing New York Center
06:53AM 40.7381 -74.9394 222° Southwest 457 526 34,000 240 Climbing New York Center
06:54AM 40.6467 -75.0489 222° Southwest 457 526 34,000  Level New York Center
06:55AM 40.5528 -75.1658 223° Southwest 457 526 34,000 -60 Level New York Center
06:56AM 40.4633 -75.2719 222° Southwest 457 526 33,900  Descending New York Center
06:57AM 40.4242 -75.4222 251° West 442 509 34,000  Climbing New York Center
06:58AM 40.4150 -75.5961 266° West 427 491 33,900  Descending New York Center
06:59AM 40.3494 -75.7222 236° Southwest 427 491 34,000  Climbing New York Center
07:00AM 40.2414 -75.8122 212° Southwest 426 490 34,000 -60 Level New York Center
07:01AM 40.1569 -75.9339 228° Southwest 444 511 33,900  Descending New York Center
07:02AM 40.0761 -76.0608 230° Southwest 457 526 34,000  Climbing New York Center
07:03AM 39.9994 -76.1878 232° Southwest 457 526 34,000  Level New York Center
07:04AM 39.9164 -76.3167 230° Southwest 463 533 34,000  Level New York Center
07:05AM 39.8375 -76.4403 230° Southwest 458 527 34,000  Level New York Center
07:06AM 39.7608 -76.5611 230° Southwest 458 527 34,000  Level New York Center
07:07AM 39.6839 -76.6842 231° Southwest 452 520 34,000  Level New York Center
07:08AM 39.5717 -76.8569 230° Southwest 433 498 34,000  Level Washington Center
07:09AM 39.4911 -76.9792 230° Southwest 433 498 34,000  Level Washington Center
07:10AM 39.3939 -77.0875 221° Southwest 445 512 34,000  Level Washington Center
07:11AM 39.2967 -77.1900 219° Southwest 460 529 34,000  Level Washington Center
07:12AM 39.1994 -77.2897 218° Southwest 460 529 34,000  Level Washington Center
07:13AM 39.1022 -77.3917 219° Southwest 455 524 34,000  Level Washington Center
07:14AM 39.0047 -77.4933 219° Southwest 455 524 34,000  Level Washington Center
07:15AM 38.9156 -77.5872 219° Southwest 463 533 34,000  Level Washington Center
07:16AM 38.8053 -77.7014 219° Southwest 463 533 34,000  Level Washington Center
07:17AM 38.7119 -77.7944 218° Southwest 475 547 34,000  Level Washington Center
07:18AM 38.6203 -77.8981 221° Southwest 469 540 34,000  Level Washington Center
07:19AM 38.5447 -78.0258 233° Southwest 457 526 34,000  Level Washington Center
07:20AM 38.4711 -78.1561 234° Southwest 457 526 34,000  Level Washington Center
07:21AM 38.3975 -78.2806 233° Southwest 457 526 34,000  Level Washington Center
07:22AM 38.3217 -78.4103 233° Southwest 457 526 34,000  Level Washington Center
07:23AM 38.2431 -78.5500 234° Southwest 457 526 34,000  Level Washington Center
07:24AM 38.1714 -78.6661 232° Southwest 457 526 34,000  Level Washington Center
07:25AM 38.0972 -78.7922 233° Southwest 457 526 34,000  Level Washington Center
07:26AM 38.0186 -78.9208 232° Southwest 457 526 34,000  Level Washington Center
07:27AM 37.9333 -79.0619 233° Southwest 457 526 34,000  Level Washington Center
07:28AM 37.8483 -79.1869 229° Southwest 462 532 34,000  Level Washington Center
07:29AM 37.7611 -79.3089 228° Southwest 467 537 34,000  Level Washington Center
07:30AM 37.6697 -79.4303 226° Southwest 481 554 34,000  Level Washington Center
07:31AM 37.5911 -79.5389 228° Southwest 481 554 34,000  Level Washington Center
07:32AM 37.4947 -79.6728 228° Southwest 481 554 34,000  Level Washington Center
07:33AM 37.4050 -79.7958 227° Southwest 479 551 34,000  Level Washington Center
07:34AM 37.3172 -79.9139 227° Southwest 479 551 34,000  Level Washington Center
07:35AM 37.2383 -80.0217 227° Southwest 479 551 34,000  Level Washington Center
07:37AM 37.1156 -80.1867 227° Southwest 470 541 34,000  Level Atlanta Center
07:38AM 37.0275 -80.3056 227° Southwest 460 529 34,000  Level Atlanta Center
07:39AM 36.9492 -80.4078 226° Southwest 460 529 34,000  Level Atlanta Center
07:40AM 36.8631 -80.5233 227° Southwest 460 529 34,000  Level Atlanta Center
07:41AM 36.7744 -80.6414 227° Southwest 460 529 34,000  Level Atlanta Center
07:42AM 36.6900 -80.7511 226° Southwest 452 520 34,000  Level Atlanta Center
07:43AM 36.6033 -80.8683 227° Southwest 452 520 34,000  Level Atlanta Center
07:44AM 36.5167 -80.9828 227° Southwest 459 528 34,000  Level Atlanta Center
07:45AM 36.4275 -81.0972 226° Southwest 459 528 34,000  Level Atlanta Center
07:46AM 36.3325 -81.2244 227° Southwest 459 528 34,000  Level Atlanta Center
07:47AM 36.2456 -81.3408 227° Southwest 459 528 34,000  Level Atlanta Center
07:48AM 36.1561 -81.4542 226° Southwest 464 534 34,000  Level Atlanta Center
07:49AM 36.0708 -81.5650 226° Southwest 451 519 34,000  Level Atlanta Center
07:50AM 35.9794 -81.6858 227° Southwest 462 532 34,000  Level Atlanta Center
07:51AM 35.8939 -81.8008 227° Southwest 462 532 34,000  Level Atlanta Center
07:52AM 35.8061 -81.9136 226° Southwest 462 532 34,000  Level Atlanta Center
07:53AM 35.7206 -82.0258 227° Southwest 452 520 34,000  Level Atlanta Center
07:54AM 35.6306 -82.1378 225° Southwest 458 527 34,000  Level Atlanta Center
07:55AM 35.5425 -82.2494 226° Southwest 458 527 34,000 -480 Level Atlanta Center
07:56AM 35.4522 -82.3611 225° Southwest 458 527 33,100 -1,380 Descending Atlanta Center
07:57AM 35.3639 -82.4725 226° Southwest 458 527 31,300 -1,500 Descending Atlanta Center
07:58AM 35.2819 -82.5733 225° Southwest 463 533 30,100 -1,800 Descending Atlanta Center
07:59AM 35.1914 -82.6842 225° Southwest 463 533 27,800 -1,680 Descending Atlanta Center
08:00AM 35.0944 -82.7950 223° Southwest 468 539 26,800 -1,140 Descending Atlanta Center
08:01AM 35.0014 -82.8928 221° Southwest 468 539 25,600 -1,320 Descending Atlanta Center
08:02AM 34.9167 -82.9850 222° Southwest 444 511 24,200 -840 Descending Atlanta Center
08:03AM 34.8319 -83.0722 220° Southwest 413 475 24,000 -120 Descending Atlanta Center
08:04AM 34.7447 -83.1567 219° Southwest 402 463 24,000 -60 Level Atlanta Center
08:05AM 34.6536 -83.2558 222° Southwest 423 487 23,900 -720 Descending Atlanta Center
08:06AM 34.5644 -83.3503 221° Southwest 429 494 22,600 -1,800 Descending Atlanta Center
08:07AM 34.4692 -83.4492 221° Southwest 421 484 20,400 -2,160 Descending Atlanta Center
08:08AM 34.3858 -83.5353 220° Southwest 409 471 18,300 -2,040 Descending Atlanta Center
08:09AM 34.3069 -83.6189 221° Southwest 402 463 16,400 -1,920 Descending Atlanta Center
08:10AM 34.2300 -83.6972 220° Southwest 385 443 14,500 -1,920 Descending Atlanta Center
08:11AM 34.1550 -83.7753 221° Southwest 371 427 12,600 -1,260 Descending Atlanta Center
08:12AM 34.0864 -83.8456 220° Southwest 348 400 12,000 -720 Descending Atlanta Center
08:13AM 34.0258 -83.9108 222° Southwest 310 357 11,200 -1,320 Descending Atlanta Center
08:14AM 33.9667 -83.9667 218° Southwest 288 331 9,400 -1,140 Descending Atlanta TRACON
08:15AM 33.8833 -83.9667 180° South 287 330 9,000 -420 Descending Atlanta TRACON
08:16AM 33.8167 -83.9500 168° South 236 272 8,700 -780 Descending Atlanta TRACON
08:17AM 33.7667 -83.9500 180° South 201 231 7,600 -900 Descending Atlanta TRACON
08:17AM 33.7167 -83.9500 180° South 200 230 7,000 -300 Descending Atlanta TRACON
08:18AM 33.6667 -83.9333 164° South 192 221 7,100  Climbing Atlanta TRACON
08:19AM 33.6333 -83.9833 231° Southwest 193 222 7,100 -120 Level Atlanta TRACON
08:20AM 33.6333 -84.0500 270° West 196 226 6,900 -720 Descending Atlanta TRACON
08:21AM 33.6333 -84.1167 270° West 191 220 5,800 -960 Descending Atlanta TRACON
08:22AM 33.6333 -84.1667 270° West 181 208 5,100 -780 Descending Atlanta TRACON